sensor_id;sensor_type;location;lat;lon;timestamp;temperature;humidity
68248;SHT30;55064;49.636;12.164;2023-08-01T00:00:57;17.11;86.74
68248;SHT30;55064;49.636;12.164;2023-08-01T00:03:25;17.08;86.75
68248;SHT30;55064;49.636;12.164;2023-08-01T00:05:53;17.05;87.66
68248;SHT30;55064;49.636;12.164;2023-08-01T00:08:21;16.92;87.77
68248;SHT30;55064;49.636;12.164;2023-08-01T00:10:48;16.95;88.29
68248;SHT30;55064;49.636;12.164;2023-08-01T00:13:13;16.95;87.78
68248;SHT30;55064;49.636;12.164;2023-08-01T00:15:39;16.89;87.95
68248;SHT30;55064;49.636;12.164;2023-08-01T00:18:04;16.94;88.13
68248;SHT30;55064;49.636;12.164;2023-08-01T00:20:32;17.01;87.49
68248;SHT30;55064;49.636;12.164;2023-08-01T00:23:01;17.06;86.88
68248;SHT30;55064;49.636;12.164;2023-08-01T00:25:27;17.04;87.49
68248;SHT30;55064;49.636;12.164;2023-08-01T00:27:56;17.02;87.51
68248;SHT30;55064;49.636;12.164;2023-08-01T00:30:24;16.99;86.94
68248;SHT30;55064;49.636;12.164;2023-08-01T00:32:49;16.99;87.23
68248;SHT30;55064;49.636;12.164;2023-08-01T00:35:17;16.99;87.06
68248;SHT30;55064;49.636;12.164;2023-08-01T00:37:44;16.99;86.60
68248;SHT30;55064;49.636;12.164;2023-08-01T00:40:11;16.98;87.03
68248;SHT30;55064;49.636;12.164;2023-08-01T00:42:37;16.95;86.98
68248;SHT30;55064;49.636;12.164;2023-08-01T00:45:04;16.92;87.76
68248;SHT30;55064;49.636;12.164;2023-08-01T00:47:29;16.96;87.72
68248;SHT30;55064;49.636;12.164;2023-08-01T00:49:55;17.01;87.72
68248;SHT30;55064;49.636;12.164;2023-08-01T00:52:23;16.98;86.95
68248;SHT30;55064;49.636;12.164;2023-08-01T00:54:52;16.98;86.61
68248;SHT30;55064;49.636;12.164;2023-08-01T00:57:17;16.94;87.14
68248;SHT30;55064;49.636;12.164;2023-08-01T00:59:42;16.79;88.53
68248;SHT30;55064;49.636;12.164;2023-08-01T01:02:08;16.74;89.17
68248;SHT30;55064;49.636;12.164;2023-08-01T01:04:39;16.77;89.28
68248;SHT30;55064;49.636;12.164;2023-08-01T01:07:06;16.74;88.36
68248;SHT30;55064;49.636;12.164;2023-08-01T01:09:32;16.72;88.25
68248;SHT30;55064;49.636;12.164;2023-08-01T01:12:00;16.84;88.55
68248;SHT30;55064;49.636;12.164;2023-08-01T01:14:27;16.82;87.94
68248;SHT30;55064;49.636;12.164;2023-08-01T01:16:52;16.85;87.51
68248;SHT30;55064;49.636;12.164;2023-08-01T01:19:18;16.91;87.83
68248;SHT30;55064;49.636;12.164;2023-08-01T01:21:46;16.96;86.59
68248;SHT30;55064;49.636;12.164;2023-08-01T01:24:13;17.02;86.55
68248;SHT30;55064;49.636;12.164;2023-08-01T01:26:40;17.04;86.84
68248;SHT30;55064;49.636;12.164;2023-08-01T01:29:06;17.05;87.46
68248;SHT30;55064;49.636;12.164;2023-08-01T01:31:34;16.99;87.72
68248;SHT30;55064;49.636;12.164;2023-08-01T01:34:00;16.89;88.51
68248;SHT30;55064;49.636;12.164;2023-08-01T01:36:26;16.85;89.27
68248;SHT30;55064;49.636;12.164;2023-08-01T01:38:51;16.79;89.61
68248;SHT30;55064;49.636;12.164;2023-08-01T01:41:21;16.81;90.09
68248;SHT30;55064;49.636;12.164;2023-08-01T01:43:47;16.79;90.72
68248;SHT30;55064;49.636;12.164;2023-08-01T01:46:13;16.68;90.71
68248;SHT30;55064;49.636;12.164;2023-08-01T01:48:38;16.63;91.57
68248;SHT30;55064;49.636;12.164;2023-08-01T01:51:04;16.61;91.72
68248;SHT30;55064;49.636;12.164;2023-08-01T01:53:33;16.60;92.28
68248;SHT30;55064;49.636;12.164;2023-08-01T01:55:59;16.49;92.58
68248;SHT30;55064;49.636;12.164;2023-08-01T01:58:25;16.50;93.16
68248;SHT30;55064;49.636;12.164;2023-08-01T02:00:50;16.41;93.13
68248;SHT30;55064;49.636;12.164;2023-08-01T02:03:18;16.39;93.66
68248;SHT30;55064;49.636;12.164;2023-08-01T02:05:47;16.36;93.90
68248;SHT30;55064;49.636;12.164;2023-08-01T02:08:13;16.32;93.51
68248;SHT30;55064;49.636;12.164;2023-08-01T02:10:38;16.34;93.43
68248;SHT30;55064;49.636;12.164;2023-08-01T02:13:04;16.33;93.53
68248;SHT30;55064;49.636;12.164;2023-08-01T02:15:33;16.40;93.41
68248;SHT30;55064;49.636;12.164;2023-08-01T02:17:58;16.36;93.60
68248;SHT30;55064;49.636;12.164;2023-08-01T02:20:23;16.41;93.62
68248;SHT30;55064;49.636;12.164;2023-08-01T02:22:53;16.36;93.15
68248;SHT30;55064;49.636;12.164;2023-08-01T02:25:20;16.39;93.54
68248;SHT30;55064;49.636;12.164;2023-08-01T02:27:46;16.40;93.64
68248;SHT30;55064;49.636;12.164;2023-08-01T02:30:15;16.37;93.78
68248;SHT30;55064;49.636;12.164;2023-08-01T02:32:40;16.43;93.42
68248;SHT30;55064;49.636;12.164;2023-08-01T02:35:07;16.36;93.50
68248;SHT30;55064;49.636;12.164;2023-08-01T02:37:32;16.32;94.22
68248;SHT30;55064;49.636;12.164;2023-08-01T02:39:59;16.39;93.75
68248;SHT30;55064;49.636;12.164;2023-08-01T02:42:24;16.30;94.28
68248;SHT30;55064;49.636;12.164;2023-08-01T02:44:52;16.19;93.97
68248;SHT30;55064;49.636;12.164;2023-08-01T02:47:18;16.17;94.11
68248;SHT30;55064;49.636;12.164;2023-08-01T02:49:44;16.20;94.18
68248;SHT30;55064;49.636;12.164;2023-08-01T02:52:09;16.16;93.91
68248;SHT30;55064;49.636;12.164;2023-08-01T02:54:35;16.19;94.05
68248;SHT30;55064;49.636;12.164;2023-08-01T02:57:01;16.15;93.89
68248;SHT30;55064;49.636;12.164;2023-08-01T02:59:27;16.15;93.91
68248;SHT30;55064;49.636;12.164;2023-08-01T03:01:53;16.12;94.13
68248;SHT30;55064;49.636;12.164;2023-08-01T03:04:19;16.15;94.21
68248;SHT30;55064;49.636;12.164;2023-08-01T03:06:46;16.10;94.22
68248;SHT30;55064;49.636;12.164;2023-08-01T03:09:12;16.17;94.18
68248;SHT30;55064;49.636;12.164;2023-08-01T03:11:38;16.19;94.13
68248;SHT30;55064;49.636;12.164;2023-08-01T03:14:03;16.15;94.11
68248;SHT30;55064;49.636;12.164;2023-08-01T03:16:32;16.20;93.98
68248;SHT30;55064;49.636;12.164;2023-08-01T03:18:57;16.20;93.83
68248;SHT30;55064;49.636;12.164;2023-08-01T03:21:24;16.16;94.18
68248;SHT30;55064;49.636;12.164;2023-08-01T03:23:52;16.19;93.43
68248;SHT30;55064;49.636;12.164;2023-08-01T03:26:17;16.23;93.79
68248;SHT30;55064;49.636;12.164;2023-08-01T03:28:43;16.20;93.65
68248;SHT30;55064;49.636;12.164;2023-08-01T03:31:11;16.10;94.23
68248;SHT30;55064;49.636;12.164;2023-08-01T03:33:36;16.10;94.60
68248;SHT30;55064;49.636;12.164;2023-08-01T03:36:02;16.20;94.83
68248;SHT30;55064;49.636;12.164;2023-08-01T03:38:29;16.20;94.70
68248;SHT30;55064;49.636;12.164;2023-08-01T03:40:54;16.08;95.34
68248;SHT30;55064;49.636;12.164;2023-08-01T03:43:19;16.02;95.86
68248;SHT30;55064;49.636;12.164;2023-08-01T03:45:49;15.95;96.11
68248;SHT30;55064;49.636;12.164;2023-08-01T03:48:14;15.91;96.49
68248;SHT30;55064;49.636;12.164;2023-08-01T03:50:39;15.89;96.43
68248;SHT30;55064;49.636;12.164;2023-08-01T03:53:05;15.88;96.36
68248;SHT30;55064;49.636;12.164;2023-08-01T03:55:31;15.89;96.15
68248;SHT30;55064;49.636;12.164;2023-08-01T03:57:56;15.94;96.44
68248;SHT30;55064;49.636;12.164;2023-08-01T04:00:22;15.91;95.98
68248;SHT30;55064;49.636;12.164;2023-08-01T04:02:52;15.89;96.17
68248;SHT30;55064;49.636;12.164;2023-08-01T04:05:20;15.89;96.61
68248;SHT30;55064;49.636;12.164;2023-08-01T04:07:46;15.84;96.55
68248;SHT30;55064;49.636;12.164;2023-08-01T04:10:11;15.85;96.47
68248;SHT30;55064;49.636;12.164;2023-08-01T04:15:58;15.91;96.70
68248;SHT30;55064;49.636;12.164;2023-08-01T04:21:45;15.94;96.88
68248;SHT30;55064;49.636;12.164;2023-08-01T04:24:11;15.86;96.65
68248;SHT30;55064;49.636;12.164;2023-08-01T04:30:19;15.98;95.61
68248;SHT30;55064;49.636;12.164;2023-08-01T04:33:04;15.94;96.39
68248;SHT30;55064;49.636;12.164;2023-08-01T04:35:49;15.92;96.65
68248;SHT30;55064;49.636;12.164;2023-08-01T04:38:17;15.98;96.42
68248;SHT30;55064;49.636;12.164;2023-08-01T04:41:14;15.95;96.94
68248;SHT30;55064;49.636;12.164;2023-08-01T04:44:16;15.89;96.83
68248;SHT30;55064;49.636;12.164;2023-08-01T04:47:05;15.89;97.00
68248;SHT30;55064;49.636;12.164;2023-08-01T04:49:36;15.92;96.90
68248;SHT30;55064;49.636;12.164;2023-08-01T04:55:20;15.89;97.29
68248;SHT30;55064;49.636;12.164;2023-08-01T04:57:48;15.89;97.53
68248;SHT30;55064;49.636;12.164;2023-08-01T05:00:14;15.89;97.32
68248;SHT30;55064;49.636;12.164;2023-08-01T05:02:54;15.89;97.38
68248;SHT30;55064;49.636;12.164;2023-08-01T05:05:39;15.85;97.54
68248;SHT30;55064;49.636;12.164;2023-08-01T05:08:22;15.85;97.76
68248;SHT30;55064;49.636;12.164;2023-08-01T05:20:34;15.82;97.97
68248;SHT30;55064;49.636;12.164;2023-08-01T05:23:00;15.88;97.47
68248;SHT30;55064;49.636;12.164;2023-08-01T05:25:26;15.81;98.04
68248;SHT30;55064;49.636;12.164;2023-08-01T05:27:51;15.74;98.05
68248;SHT30;55064;49.636;12.164;2023-08-01T05:30:16;15.77;98.60
68248;SHT30;55064;49.636;12.164;2023-08-01T05:32:42;15.81;98.04
68248;SHT30;55064;49.636;12.164;2023-08-01T05:35:13;15.75;98.00
68248;SHT30;55064;49.636;12.164;2023-08-01T05:37:38;15.75;98.32
68248;SHT30;55064;49.636;12.164;2023-08-01T05:40:04;15.78;98.51
68248;SHT30;55064;49.636;12.164;2023-08-01T05:42:32;15.85;98.17
68248;SHT30;55064;49.636;12.164;2023-08-01T05:44:58;15.86;98.17
68248;SHT30;55064;49.636;12.164;2023-08-01T05:47:23;15.84;98.50
68248;SHT30;55064;49.636;12.164;2023-08-01T05:49:49;15.82;98.49
68248;SHT30;55064;49.636;12.164;2023-08-01T05:52:15;15.79;98.87
68248;SHT30;55064;49.636;12.164;2023-08-01T05:54:40;15.77;99.00
68248;SHT30;55064;49.636;12.164;2023-08-01T05:57:06;15.85;98.44
68248;SHT30;55064;49.636;12.164;2023-08-01T05:59:32;15.89;98.06
68248;SHT30;55064;49.636;12.164;2023-08-01T06:01:59;15.91;98.01
68248;SHT30;55064;49.636;12.164;2023-08-01T06:04:25;15.95;97.80
68248;SHT30;55064;49.636;12.164;2023-08-01T06:06:51;15.89;97.76
68248;SHT30;55064;49.636;12.164;2023-08-01T06:09:17;15.89;98.25
68248;SHT30;55064;49.636;12.164;2023-08-01T06:11:42;15.89;98.54
68248;SHT30;55064;49.636;12.164;2023-08-01T06:14:09;15.94;98.50
68248;SHT30;55064;49.636;12.164;2023-08-01T06:16:35;15.92;98.35
68248;SHT30;55064;49.636;12.164;2023-08-01T06:19:01;15.98;98.44
68248;SHT30;55064;49.636;12.164;2023-08-01T06:21:27;15.98;98.44
68248;SHT30;55064;49.636;12.164;2023-08-01T06:23:53;15.98;98.16
68248;SHT30;55064;49.636;12.164;2023-08-01T06:26:18;15.98;98.30
68248;SHT30;55064;49.636;12.164;2023-08-01T06:28:43;16.03;98.47
68248;SHT30;55064;49.636;12.164;2023-08-01T06:31:09;16.06;98.66
68248;SHT30;55064;49.636;12.164;2023-08-01T06:33:34;16.06;98.36
68248;SHT30;55064;49.636;12.164;2023-08-01T06:35:59;16.13;97.80
68248;SHT30;55064;49.636;12.164;2023-08-01T06:38:27;16.12;97.65
68248;SHT30;55064;49.636;12.164;2023-08-01T06:40:52;16.16;97.91
68248;SHT30;55064;49.636;12.164;2023-08-01T06:43:18;16.20;97.27
68248;SHT30;55064;49.636;12.164;2023-08-01T06:45:45;16.26;97.51
68248;SHT30;55064;49.636;12.164;2023-08-01T06:48:11;16.26;97.60
68248;SHT30;55064;49.636;12.164;2023-08-01T06:50:36;16.30;97.05
68248;SHT30;55064;49.636;12.164;2023-08-01T06:53:02;16.29;97.32
68248;SHT30;55064;49.636;12.164;2023-08-01T06:55:29;16.32;97.70
68248;SHT30;55064;49.636;12.164;2023-08-01T06:57:55;16.34;97.52
68248;SHT30;55064;49.636;12.164;2023-08-01T07:00:20;16.39;97.30
68248;SHT30;55064;49.636;12.164;2023-08-01T07:02:47;16.34;97.03
68248;SHT30;55064;49.636;12.164;2023-08-01T07:05:12;16.39;97.59
68248;SHT30;55064;49.636;12.164;2023-08-01T07:07:38;16.39;97.92
68248;SHT30;55064;49.636;12.164;2023-08-01T07:10:03;16.41;97.71
68248;SHT30;55064;49.636;12.164;2023-08-01T07:12:29;16.44;97.14
68248;SHT30;55064;49.636;12.164;2023-08-01T07:14:54;16.49;97.30
68248;SHT30;55064;49.636;12.164;2023-08-01T07:17:22;16.50;96.96
68248;SHT30;55064;49.636;12.164;2023-08-01T07:19:47;16.53;97.29
68248;SHT30;55064;49.636;12.164;2023-08-01T07:22:13;16.61;97.10
68248;SHT30;55064;49.636;12.164;2023-08-01T07:24:38;16.61;97.47
68248;SHT30;55064;49.636;12.164;2023-08-01T07:27:04;16.64;96.71
68248;SHT30;55064;49.636;12.164;2023-08-01T07:29:32;16.64;97.17
68248;SHT30;55064;49.636;12.164;2023-08-01T07:31:58;16.67;97.28
68248;SHT30;55064;49.636;12.164;2023-08-01T07:34:24;16.61;97.00
68248;SHT30;55064;49.636;12.164;2023-08-01T07:36:50;16.60;97.41
68248;SHT30;55064;49.636;12.164;2023-08-01T07:39:16;16.61;96.76
68248;SHT30;55064;49.636;12.164;2023-08-01T07:41:41;16.60;97.16
68248;SHT30;55064;49.636;12.164;2023-08-01T07:44:07;16.68;96.86
68248;SHT30;55064;49.636;12.164;2023-08-01T07:46:32;16.71;97.28
68248;SHT30;55064;49.636;12.164;2023-08-01T07:48:59;16.70;97.54
68248;SHT30;55064;49.636;12.164;2023-08-01T07:51:27;16.68;96.84
68248;SHT30;55064;49.636;12.164;2023-08-01T07:53:54;16.74;97.28
68248;SHT30;55064;49.636;12.164;2023-08-01T07:56:20;16.78;97.32
68248;SHT30;55064;49.636;12.164;2023-08-01T07:58:46;16.81;96.79
68248;SHT30;55064;49.636;12.164;2023-08-01T08:01:11;16.78;96.85
68248;SHT30;55064;49.636;12.164;2023-08-01T08:03:36;16.81;97.41
68248;SHT30;55064;49.636;12.164;2023-08-01T08:06:03;16.81;96.32
68248;SHT30;55064;49.636;12.164;2023-08-01T08:08:31;16.75;97.00
68248;SHT30;55064;49.636;12.164;2023-08-01T08:10:58;16.77;97.37
68248;SHT30;55064;49.636;12.164;2023-08-01T08:13:24;16.77;96.61
68248;SHT30;55064;49.636;12.164;2023-08-01T08:15:50;16.75;96.93
68248;SHT30;55064;49.636;12.164;2023-08-01T08:18:16;16.72;96.65
68248;SHT30;55064;49.636;12.164;2023-08-01T08:20:45;16.72;96.96
68248;SHT30;55064;49.636;12.164;2023-08-01T08:23:11;16.77;97.09
68248;SHT30;55064;49.636;12.164;2023-08-01T08:25:39;16.78;96.93
68248;SHT30;55064;49.636;12.164;2023-08-01T08:28:05;16.72;96.93
68248;SHT30;55064;49.636;12.164;2023-08-01T08:30:31;16.67;97.18
68248;SHT30;55064;49.636;12.164;2023-08-01T08:32:57;16.65;97.27
68248;SHT30;55064;49.636;12.164;2023-08-01T08:35:25;16.60;96.38
68248;SHT30;55064;49.636;12.164;2023-08-01T08:37:51;16.60;97.41
68248;SHT30;55064;49.636;12.164;2023-08-01T08:40:16;16.58;96.58
68248;SHT30;55064;49.636;12.164;2023-08-01T08:42:42;16.61;97.29
68248;SHT30;55064;49.636;12.164;2023-08-01T08:45:08;16.54;96.97
68248;SHT30;55064;49.636;12.164;2023-08-01T08:47:41;16.57;97.38
68248;SHT30;55064;49.636;12.164;2023-08-01T08:50:10;16.60;97.38
68248;SHT30;55064;49.636;12.164;2023-08-01T08:52:38;16.61;97.86
68248;SHT30;55064;49.636;12.164;2023-08-01T08:55:05;16.61;97.91
68248;SHT30;55064;49.636;12.164;2023-08-01T08:57:31;16.44;98.33
68248;SHT30;55064;49.636;12.164;2023-08-01T08:59:59;16.37;98.60
68248;SHT30;55064;49.636;12.164;2023-08-01T09:02:27;16.32;98.50
68248;SHT30;55064;49.636;12.164;2023-08-01T09:04:53;16.17;98.85
68248;SHT30;55064;49.636;12.164;2023-08-01T09:07:23;16.20;99.13
68248;SHT30;55064;49.636;12.164;2023-08-01T09:09:51;16.19;99.00
68248;SHT30;55064;49.636;12.164;2023-08-01T09:12:19;16.17;98.95
68248;SHT30;55064;49.636;12.164;2023-08-01T09:14:48;16.20;98.61
68248;SHT30;55064;49.636;12.164;2023-08-01T09:17:15;16.15;98.08
68248;SHT30;55064;49.636;12.164;2023-08-01T09:19:43;16.17;96.58
68248;SHT30;55064;49.636;12.164;2023-08-01T09:22:13;16.23;97.03
68248;SHT30;55064;49.636;12.164;2023-08-01T09:24:39;16.20;97.32
68248;SHT30;55064;49.636;12.164;2023-08-01T09:27:15;16.19;97.20
68248;SHT30;55064;49.636;12.164;2023-08-01T09:29:40;16.17;98.07
68248;SHT30;55064;49.636;12.164;2023-08-01T09:32:17;16.20;98.00
68248;SHT30;55064;49.636;12.164;2023-08-01T09:34:43;16.23;98.81
68248;SHT30;55064;49.636;12.164;2023-08-01T09:37:10;16.26;98.54
68248;SHT30;55064;49.636;12.164;2023-08-01T09:39:36;16.32;98.48
68248;SHT30;55064;49.636;12.164;2023-08-01T09:42:02;16.39;97.30
68248;SHT30;55064;49.636;12.164;2023-08-01T09:44:29;16.43;97.13
68248;SHT30;55064;49.636;12.164;2023-08-01T09:47:00;16.53;97.77
68248;SHT30;55064;49.636;12.164;2023-08-01T09:49:28;16.57;97.64
68248;SHT30;55064;49.636;12.164;2023-08-01T09:51:58;16.75;98.20
68248;SHT30;55064;49.636;12.164;2023-08-01T09:54:24;16.96;98.21
68248;SHT30;55064;49.636;12.164;2023-08-01T09:56:52;16.92;96.45
68248;SHT30;55064;49.636;12.164;2023-08-01T09:59:23;17.02;96.35
68248;SHT30;55064;49.636;12.164;2023-08-01T10:01:53;17.02;96.71
68248;SHT30;55064;49.636;12.164;2023-08-01T10:04:45;17.12;96.07
68248;SHT30;55064;49.636;12.164;2023-08-01T10:07:11;17.23;96.49
68248;SHT30;55064;49.636;12.164;2023-08-01T10:09:40;17.16;96.39
68248;SHT30;55064;49.636;12.164;2023-08-01T10:12:06;17.20;95.79
68248;SHT30;55064;49.636;12.164;2023-08-01T10:14:32;17.25;95.46
68248;SHT30;55064;49.636;12.164;2023-08-01T10:16:58;17.18;95.24
68248;SHT30;55064;49.636;12.164;2023-08-01T10:19:24;17.20;94.15
68248;SHT30;55064;49.636;12.164;2023-08-01T10:21:50;17.26;94.21
68248;SHT30;55064;49.636;12.164;2023-08-01T10:24:18;17.32;93.51
68248;SHT30;55064;49.636;12.164;2023-08-01T10:26:45;17.33;94.34
68248;SHT30;55064;49.636;12.164;2023-08-01T10:29:11;17.34;94.21
68248;SHT30;55064;49.636;12.164;2023-08-01T10:31:39;17.47;94.07
68248;SHT30;55064;49.636;12.164;2023-08-01T10:34:13;17.57;93.37
68248;SHT30;55064;49.636;12.164;2023-08-01T10:36:38;17.63;92.98
68248;SHT30;55064;49.636;12.164;2023-08-01T10:39:04;17.47;93.62
68248;SHT30;55064;49.636;12.164;2023-08-01T10:41:34;17.47;93.69
68248;SHT30;55064;49.636;12.164;2023-08-01T10:46:48;17.42;94.65
68248;SHT30;55064;49.636;12.164;2023-08-01T10:49:14;17.22;93.40
68248;SHT30;55064;49.636;12.164;2023-08-01T10:51:40;17.15;93.91
68248;SHT30;55064;49.636;12.164;2023-08-01T10:54:06;17.14;94.06
68248;SHT30;55064;49.636;12.164;2023-08-01T10:56:32;17.02;94.16
68248;SHT30;55064;49.636;12.164;2023-08-01T10:58:58;17.06;94.83
68248;SHT30;55064;49.636;12.164;2023-08-01T11:01:25;17.05;94.57
68248;SHT30;55064;49.636;12.164;2023-08-01T11:03:56;17.08;94.56
68248;SHT30;55064;49.636;12.164;2023-08-01T11:06:21;17.08;94.59
68248;SHT30;55064;49.636;12.164;2023-08-01T11:08:47;16.95;94.25
68248;SHT30;55064;49.636;12.164;2023-08-01T11:11:14;17.01;94.61
68248;SHT30;55064;49.636;12.164;2023-08-01T11:13:39;17.08;95.24
68248;SHT30;55064;49.636;12.164;2023-08-01T11:16:05;17.26;94.49
68248;SHT30;55064;49.636;12.164;2023-08-01T11:18:44;17.46;94.15
68248;SHT30;55064;49.636;12.164;2023-08-01T11:21:24;17.54;93.89
68248;SHT30;55064;49.636;12.164;2023-08-01T11:23:56;17.63;93.19
68248;SHT30;55064;49.636;12.164;2023-08-01T11:26:22;17.71;92.86
68248;SHT30;55064;49.636;12.164;2023-08-01T11:28:55;17.57;92.44
68248;SHT30;55064;49.636;12.164;2023-08-01T11:31:21;17.55;93.12
68248;SHT30;55064;49.636;12.164;2023-08-01T11:33:55;17.55;93.66
68248;SHT30;55064;49.636;12.164;2023-08-01T11:36:24;17.51;92.93
68248;SHT30;55064;49.636;12.164;2023-08-01T11:38:58;17.47;92.87
68248;SHT30;55064;49.636;12.164;2023-08-01T11:41:25;17.49;93.02
68248;SHT30;55064;49.636;12.164;2023-08-01T11:43:54;17.54;93.05
68248;SHT30;55064;49.636;12.164;2023-08-01T11:46:31;17.63;92.71
68248;SHT30;55064;49.636;12.164;2023-08-01T11:49:00;17.53;92.66
68248;SHT30;55064;49.636;12.164;2023-08-01T11:51:42;17.63;92.50
68248;SHT30;55064;49.636;12.164;2023-08-01T11:54:08;17.77;92.41
68248;SHT30;55064;49.636;12.164;2023-08-01T11:56:36;17.82;91.64
68248;SHT30;55064;49.636;12.164;2023-08-01T11:59:08;18.21;92.18
68248;SHT30;55064;49.636;12.164;2023-08-01T12:01:38;18.44;90.24
68248;SHT30;55064;49.636;12.164;2023-08-01T12:04:04;18.68;89.96
68248;SHT30;55064;49.636;12.164;2023-08-01T12:06:32;18.80;89.58
68248;SHT30;55064;49.636;12.164;2023-08-01T12:09:13;18.47;89.47
68248;SHT30;55064;49.636;12.164;2023-08-01T12:11:39;18.49;90.25
68248;SHT30;55064;49.636;12.164;2023-08-01T12:14:10;18.47;89.66
68248;SHT30;55064;49.636;12.164;2023-08-01T12:16:41;18.60;88.61
68248;SHT30;55064;49.636;12.164;2023-08-01T12:19:08;18.54;89.66
68248;SHT30;55064;49.636;12.164;2023-08-01T12:21:34;18.40;89.45
68248;SHT30;55064;49.636;12.164;2023-08-01T12:24:01;18.61;90.15
68248;SHT30;55064;49.636;12.164;2023-08-01T12:26:33;18.70;88.96
68248;SHT30;55064;49.636;12.164;2023-08-01T12:29:00;18.53;88.61
68248;SHT30;55064;49.636;12.164;2023-08-01T12:31:26;18.50;88.13
68248;SHT30;55064;49.636;12.164;2023-08-01T12:33:51;18.36;89.22
68248;SHT30;55064;49.636;12.164;2023-08-01T12:36:19;18.40;89.02
68248;SHT30;55064;49.636;12.164;2023-08-01T12:38:44;18.52;89.07
68248;SHT30;55064;49.636;12.164;2023-08-01T12:41:09;18.42;89.49
68248;SHT30;55064;49.636;12.164;2023-08-01T12:43:38;18.53;87.98
68248;SHT30;55064;49.636;12.164;2023-08-01T12:46:05;18.44;87.67
68248;SHT30;55064;49.636;12.164;2023-08-01T12:48:30;18.33;88.66
68248;SHT30;55064;49.636;12.164;2023-08-01T12:50:56;18.28;88.25
68248;SHT30;55064;49.636;12.164;2023-08-01T12:53:21;18.18;87.68
68248;SHT30;55064;49.636;12.164;2023-08-01T12:55:50;18.12;88.52
68248;SHT30;55064;49.636;12.164;2023-08-01T12:58:17;18.08;89.61
68248;SHT30;55064;49.636;12.164;2023-08-01T13:00:43;17.94;89.97
68248;SHT30;55064;49.636;12.164;2023-08-01T13:03:12;17.81;90.53
68248;SHT30;55064;49.636;12.164;2023-08-01T13:05:47;17.64;91.20
68248;SHT30;55064;49.636;12.164;2023-08-01T13:08:12;17.67;92.87
68248;SHT30;55064;49.636;12.164;2023-08-01T13:10:38;17.43;94.72
68248;SHT30;55064;49.636;12.164;2023-08-01T13:13:10;17.15;93.04
68248;SHT30;55064;49.636;12.164;2023-08-01T13:15:35;16.98;93.53
68248;SHT30;55064;49.636;12.164;2023-08-01T13:18:00;17.08;92.08
68248;SHT30;55064;49.636;12.164;2023-08-01T13:20:26;17.23;91.79
68248;SHT30;55064;49.636;12.164;2023-08-01T13:22:55;17.63;92.17
68248;SHT30;55064;49.636;12.164;2023-08-01T13:25:21;18.05;92.06
68248;SHT30;55064;49.636;12.164;2023-08-01T13:27:47;18.24;89.46
68248;SHT30;55064;49.636;12.164;2023-08-01T13:30:12;18.64;87.79
68248;SHT30;55064;49.636;12.164;2023-08-01T13:32:41;18.80;87.97
68248;SHT30;55064;49.636;12.164;2023-08-01T13:35:08;18.74;85.07
68248;SHT30;55064;49.636;12.164;2023-08-01T13:37:38;18.91;84.33
68248;SHT30;55064;49.636;12.164;2023-08-01T13:40:04;18.94;84.05
68248;SHT30;55064;49.636;12.164;2023-08-01T13:42:32;18.60;82.20
68248;SHT30;55064;49.636;12.164;2023-08-01T13:44:59;18.46;83.24
68248;SHT30;55064;49.636;12.164;2023-08-01T13:47:24;18.83;83.07
68248;SHT30;55064;49.636;12.164;2023-08-01T13:49:49;18.67;83.00
68248;SHT30;55064;49.636;12.164;2023-08-01T13:52:15;18.91;82.63
68248;SHT30;55064;49.636;12.164;2023-08-01T13:54:40;19.07;82.02
68248;SHT30;55064;49.636;12.164;2023-08-01T13:57:09;19.46;83.88
68248;SHT30;55064;49.636;12.164;2023-08-01T13:59:35;19.67;80.00
68248;SHT30;55064;49.636;12.164;2023-08-01T14:02:05;19.83;80.70
68248;SHT30;55064;49.636;12.164;2023-08-01T14:04:33;20.08;80.39
68248;SHT30;55064;49.636;12.164;2023-08-01T14:06:59;20.32;80.00
68248;SHT30;55064;49.636;12.164;2023-08-01T14:09:25;20.19;79.21
68248;SHT30;55064;49.636;12.164;2023-08-01T14:11:51;19.95;81.57
68248;SHT30;55064;49.636;12.164;2023-08-01T14:14:21;19.84;80.68
68248;SHT30;55064;49.636;12.164;2023-08-01T14:16:48;19.60;81.25
68248;SHT30;55064;49.636;12.164;2023-08-01T14:19:14;19.52;82.60
68248;SHT30;55064;49.636;12.164;2023-08-01T14:21:39;19.32;82.66
68248;SHT30;55064;49.636;12.164;2023-08-01T14:24:07;19.20;80.82
68248;SHT30;55064;49.636;12.164;2023-08-01T14:26:34;19.18;81.93
68248;SHT30;55064;49.636;12.164;2023-08-01T14:28:59;19.08;80.99
68248;SHT30;55064;49.636;12.164;2023-08-01T14:31:25;19.09;81.49
68248;SHT30;55064;49.636;12.164;2023-08-01T14:33:50;19.22;80.11
68248;SHT30;55064;49.636;12.164;2023-08-01T14:36:18;19.37;80.39
68248;SHT30;55064;49.636;12.164;2023-08-01T14:38:43;19.53;80.31
68248;SHT30;55064;49.636;12.164;2023-08-01T14:41:11;19.74;78.57
68248;SHT30;55064;49.636;12.164;2023-08-01T14:43:36;20.14;78.41
68248;SHT30;55064;49.636;12.164;2023-08-01T14:46:02;20.33;76.06
68248;SHT30;55064;49.636;12.164;2023-08-01T14:48:28;20.59;77.58
68248;SHT30;55064;49.636;12.164;2023-08-01T14:50:54;20.55;75.84
68248;SHT30;55064;49.636;12.164;2023-08-01T14:53:20;20.32;75.40
68248;SHT30;55064;49.636;12.164;2023-08-01T14:55:45;20.09;76.38
68248;SHT30;55064;49.636;12.164;2023-08-01T14:58:10;19.97;75.12
68248;SHT30;55064;49.636;12.164;2023-08-01T15:00:36;19.88;77.44
68248;SHT30;55064;49.636;12.164;2023-08-01T15:03:02;19.84;77.58
68248;SHT30;55064;49.636;12.164;2023-08-01T15:05:27;19.73;77.11
68248;SHT30;55064;49.636;12.164;2023-08-01T15:07:52;19.69;76.01
68248;SHT30;55064;49.636;12.164;2023-08-01T15:10:18;19.64;76.51
68248;SHT30;55064;49.636;12.164;2023-08-01T15:12:43;19.43;76.65
68248;SHT30;55064;49.636;12.164;2023-08-01T15:15:09;19.67;77.88
68248;SHT30;55064;49.636;12.164;2023-08-01T15:17:34;19.73;77.49
68248;SHT30;55064;49.636;12.164;2023-08-01T15:20:00;19.84;76.37
68248;SHT30;55064;49.636;12.164;2023-08-01T15:22:25;19.54;77.99
68248;SHT30;55064;49.636;12.164;2023-08-01T15:24:52;20.08;77.73
68248;SHT30;55064;49.636;12.164;2023-08-01T15:27:17;20.08;76.12
68248;SHT30;55064;49.636;12.164;2023-08-01T15:29:45;20.30;75.25
68248;SHT30;55064;49.636;12.164;2023-08-01T15:32:12;20.42;74.90
68248;SHT30;55064;49.636;12.164;2023-08-01T15:34:38;20.43;73.49
68248;SHT30;55064;49.636;12.164;2023-08-01T15:37:07;20.24;72.52
68248;SHT30;55064;49.636;12.164;2023-08-01T15:39:36;20.28;73.00
68248;SHT30;55064;49.636;12.164;2023-08-01T15:42:08;20.52;73.19